Time;durP1;ratioP1;P1;durP2;ratioP2;P2;SDS_P1;SDS_P2;PMS_P1;PMS_P2;Temp;Humidity;BMP_temperature;BMP_pressure;BME280_temperature;BME280_humidity;BME280_pressure;Samples;Min_cycle;Max_cycle;Signal;HPM_P1;HPM_P2
2022/02/11 11:09:05;;;;;;;6.72;3.08;;;;;;;;;;5091081;27;20959;-69
2022/02/11 11:11:32;;;;;;;17.50;3.42;;;;;;;;;;5090969;28;20179;-69
2022/02/11 11:14:00;;;;;;;8.07;2.97;;;;;;;;;;5090860;28;20176;-70
2022/02/11 11:16:27;;;;;;;12.75;5.10;;;;;;;;;;5090882;28;20206;-69
2022/02/11 11:18:54;;;;;;;13.32;3.10;;;;;;;;;;5090993;28;20168;-69
2022/02/11 11:21:20;;;;;;;11.20;3.22;;;;;;;;;;5090757;28;20164;-69
2022/02/11 11:23:54;;;;;;;14.02;3.45;;;;;;;;;;5090700;28;20194;-69
2022/02/11 11:26:21;;;;;;;10.30;2.70;;;;;;;;;;5090647;28;20567;-69
2022/02/11 11:28:51;;;;;;;5.40;3.30;;;;;;;;;;5090396;28;20199;-69
2022/02/11 11:31:25;;;;;;;12.45;3.63;;;;;;;;;;5090529;28;20164;-69
2022/02/11 11:33:52;;;;;;;20.10;3.63;;;;;;;;;;5090394;28;20187;-69
2022/02/11 11:36:19;;;;;;;14.82;4.22;;;;;;;;;;5090446;28;20183;-69
2022/02/11 11:38:45;;;;;;;13.25;3.45;;;;;;;;;;5090361;28;20171;-69
2022/02/11 11:41:14;;;;;;;17.10;3.67;;;;;;;;;;5090094;28;20638;-69
2022/02/11 11:58:05;;;;;;;17.45;3.20;;;;;;;;;;5070616;28;20530;-69
2022/02/11 12:00:39;;;;;;;8.43;3.53;;;;;;;;;;5070618;28;20557;-69
2022/02/11 12:03:05;;;;;;;24.23;3.42;;;;;;;;;;5070584;28;20247;-69
2022/02/11 12:06:01;;;;;;;13.18;4.68;;;;;;;;;;5070608;28;20164;-69
2022/02/11 12:08:29;;;;;;;17.27;3.50;;;;;;;;;;5066216;28;20176;-69
2022/02/11 12:10:56;;;;;;;18.58;3.30;;;;;;;;;;5070492;28;20172;-69
2022/02/11 12:13:24;;;;;;;8.75;3.83;;;;;;;;;;5070440;28;20172;-69
2022/02/11 12:15:50;;;;;;;8.65;4.57;;;;;;;;;;5070287;28;20192;-69
2022/02/11 12:18:16;;;;;;;8.50;2.72;;;;;;;;;;5070331;28;20660;-69
2022/02/11 12:20:44;;;;;;;12.25;2.10;;;;;;;;;;5070176;28;20248;-69
2022/02/11 12:28:41;;;;;;;7.32;3.13;;;;;;;;;;5070181;28;20234;-69
2022/02/11 12:31:08;;;;;;;14.50;3.75;;;;;;;;;;5069957;28;20169;-69
2022/02/11 12:33:34;;;;;;;12.63;3.58;;;;;;;;;;5068805;28;20186;-69
2022/02/11 12:36:07;;;;;;;8.68;2.95;;;;;;;;;;5069906;28;20717;-69
2022/02/11 12:38:33;;;;;;;10.50;2.72;;;;;;;;;;5070214;28;20169;-69
2022/02/11 12:40:59;;;;;;;15.50;3.38;;;;;;;;;;5069892;28;20211;-69
2022/02/11 12:43:29;;;;;;;11.27;3.08;;;;;;;;;;5069841;28;20183;-69
2022/02/11 12:45:55;;;;;;;6.85;2.88;;;;;;;;;;5069802;28;20203;-69
2022/02/11 12:48:28;;;;;;;12.10;3.15;;;;;;;;;;5069704;28;20172;-69
2022/02/11 12:50:54;;;;;;;11.48;2.72;;;;;;;;;;5068416;28;20178;-69
2022/02/11 12:53:22;;;;;;;8.50;2.45;;;;;;;;;;5068298;28;20177;-69
2022/02/11 12:55:51;;;;;;;9.20;2.70;;;;;;;;;;5069374;28;20171;-69
2022/02/11 12:58:21;;;;;;;10.45;3.08;;;;;;;;;;5069494;28;20678;-69
2022/02/11 13:00:48;;;;;;;13.82;3.00;;;;;;;;;;5069538;28;20169;-70
2022/02/11 13:03:15;;;;;;;7.53;3.05;;;;;;;;;;5069395;28;20172;-69
2022/02/11 13:05:46;;;;;;;6.72;2.28;;;;;;;;;;5069405;28;20180;-69
2022/02/11 13:08:28;;;;;;;18.38;3.05;;;;;;;;;;5061658;28;20169;-69
2022/02/11 13:10:55;;;;;;;12.38;2.10;;;;;;;;;;5056084;28;20189;-69
2022/02/11 13:13:21;;;;;;;3.53;2.70;;;;;;;;;;5056025;28;20161;-69
2022/02/11 13:15:47;;;;;;;5.93;2.17;;;;;;;;;;5055909;28;20567;-69
2022/02/11 13:18:18;;;;;;;12.80;3.03;;;;;;;;;;5055974;28;20232;-69
2022/02/11 13:20:46;;;;;;;10.48;2.55;;;;;;;;;;5055885;28;20546;-69
2022/02/11 13:23:13;;;;;;;15.43;2.40;;;;;;;;;;5055832;28;20169;-69
2022/02/11 13:25:39;;;;;;;6.45;2.00;;;;;;;;;;5055773;28;20168;-69
2022/02/11 13:28:10;;;;;;;5.22;2.03;;;;;;;;;;5054539;28;20185;-69
2022/02/11 13:30:37;;;;;;;5.35;1.80;;;;;;;;;;5055729;28;20172;-69
2022/02/11 13:33:22;;;;;;;6.35;2.60;;;;;;;;;;5055697;28;20169;-69
2022/02/11 13:35:50;;;;;;;5.53;2.17;;;;;;;;;;5054204;28;20530;-69
2022/02/11 13:38:23;;;;;;;5.78;2.20;;;;;;;;;;5055577;28;20161;-69
2022/02/11 13:40:57;;;;;;;5.60;2.22;;;;;;;;;;5055448;28;20173;-69
2022/02/11 13:43:23;;;;;;;6.35;2.15;;;;;;;;;;5055490;28;20581;-69
2022/02/11 13:45:52;;;;;;;8.70;2.20;;;;;;;;;;5055291;28;20244;-70
2022/02/11 13:48:18;;;;;;;7.72;2.30;;;;;;;;;;5055247;28;20657;-69
2022/02/11 13:50:58;;;;;;;6.55;2.13;;;;;;;;;;5055322;28;20177;-69
2022/02/11 13:53:37;;;;;;;5.45;2.53;;;;;;;;;;5053986;28;20658;-70
2022/02/11 13:56:05;;;;;;;7.47;2.53;;;;;;;;;;5055014;28;20224;-70
2022/02/11 13:58:33;;;;;;;3.63;1.85;;;;;;;;;;5055171;28;20162;-69
2022/02/11 14:00:59;;;;;;;6.20;2.25;;;;;;;;;;5055106;28;20164;-69
2022/02/11 14:03:26;;;;;;;8.52;2.53;;;;;;;;;;5055080;28;20173;-69
2022/02/11 14:05:56;;;;;;;9.88;2.30;;;;;;;;;;5055022;28;20589;-69
2022/02/11 14:08:23;;;;;;;3.25;2.35;;;;;;;;;;5054970;28;20680;-70
2022/02/11 14:11:09;;;;;;;8.93;2.50;;;;;;;;;;5054935;28;20503;-70
2022/02/11 14:13:35;;;;;;;12.43;2.85;;;;;;;;;;5054812;28;20222;-69
2022/02/11 14:16:01;;;;;;;15.48;2.80;;;;;;;;;;5054744;28;20662;-69
2022/02/11 14:18:27;;;;;;;7.63;2.60;;;;;;;;;;5055096;28;20300;-69
2022/02/11 14:20:53;;;;;;;8.50;2.30;;;;;;;;;;5052491;28;20619;-69
2022/02/11 14:23:21;;;;;;;11.43;3.25;;;;;;;;;;5054645;28;20650;-69
2022/02/11 14:25:47;;;;;;;10.90;2.78;;;;;;;;;;5054600;28;20169;-69
2022/02/11 14:28:14;;;;;;;5.57;2.30;;;;;;;;;;5054610;28;20526;-69
2022/02/11 14:30:41;;;;;;;8.57;3.45;;;;;;;;;;5054559;28;20176;-69
2022/02/11 14:33:08;;;;;;;3.42;2.03;;;;;;;;;;5054578;28;20184;-69
2022/02/11 14:35:34;;;;;;;13.30;2.75;;;;;;;;;;5054506;28;20246;-70
2022/02/11 14:38:00;;;;;;;10.85;2.88;;;;;;;;;;5054397;28;20279;-69
2022/02/11 14:40:26;;;;;;;6.57;2.78;;;;;;;;;;5054342;28;20649;-69
2022/02/11 14:42:52;;;;;;;11.30;2.75;;;;;;;;;;5054377;28;20189;-69
2022/02/11 14:45:18;;;;;;;12.45;2.97;;;;;;;;;;5054218;28;20522;-69
2022/02/11 14:47:47;;;;;;;12.85;3.63;;;;;;;;;;5054223;28;20197;-69
2022/02/11 14:50:13;;;;;;;11.60;3.10;;;;;;;;;;5054107;28;20185;-69
2022/02/11 14:52:39;;;;;;;6.47;2.70;;;;;;;;;;5054194;28;20528;-69
2022/02/11 14:55:05;;;;;;;8.10;2.95;;;;;;;;;;5052773;28;20272;-69
2022/02/11 15:11:43;;;;;;;9.88;2.50;;;;;;;;;;5070692;28;21059;-69
2022/02/11 15:14:09;;;;;;;12.07;2.97;;;;;;;;;;5069503;28;20560;-69
2022/02/11 15:16:35;;;;;;;12.30;3.83;;;;;;;;;;5070605;28;20272;-69
2022/02/11 15:19:02;;;;;;;11.88;2.58;;;;;;;;;;5070602;28;20247;-69
2022/02/11 15:21:28;;;;;;;11.32;3.10;;;;;;;;;;5069265;28;20172;-69
2022/02/11 15:23:54;;;;;;;8.93;3.75;;;;;;;;;;5070469;28;20218;-69
2022/02/11 15:26:20;;;;;;;9.27;3.28;;;;;;;;;;5070403;28;20169;-69
2022/02/11 15:28:46;;;;;;;14.23;3.42;;;;;;;;;;5070427;28;20247;-69
2022/02/11 15:31:13;;;;;;;9.93;2.72;;;;;;;;;;5070225;28;20200;-69
2022/02/11 15:33:41;;;;;;;13.80;3.15;;;;;;;;;;5070267;28;20192;-69
2022/02/11 15:36:07;;;;;;;8.80;2.88;;;;;;;;;;5070228;28;20164;-69
2022/02/11 15:38:33;;;;;;;10.70;3.17;;;;;;;;;;5070231;28;20168;-69
2022/02/11 15:40:59;;;;;;;6.10;2.55;;;;;;;;;;5070159;28;20176;-69
2022/02/11 15:43:25;;;;;;;11.45;3.10;;;;;;;;;;5068781;28;20172;-70
2022/02/11 15:45:51;;;;;;;10.63;2.63;;;;;;;;;;5070071;28;20560;-70
2022/02/11 15:48:17;;;;;;;8.55;2.60;;;;;;;;;;5070014;28;20172;-69
2022/02/11 15:50:44;;;;;;;14.05;2.95;;;;;;;;;;5069891;28;20198;-69
2022/02/11 15:53:10;;;;;;;11.93;2.90;;;;;;;;;;5069769;28;20669;-69
2022/02/11 15:55:37;;;;;;;11.15;2.80;;;;;;;;;;5069889;28;20173;-69
2022/02/11 15:58:03;;;;;;;10.82;2.80;;;;;;;;;;5069794;28;20627;-69
2022/02/11 16:00:29;;;;;;;13.50;2.78;;;;;;;;;;5069756;28;20181;-69
2022/02/11 16:02:55;;;;;;;8.80;2.80;;;;;;;;;;5069565;28;20692;-69
2022/02/11 16:05:24;;;;;;;10.85;2.95;;;;;;;;;;5069652;28;20169;-69
2022/02/11 16:07:54;;;;;;;15.25;2.85;;;;;;;;;;5069551;28;20164;-69
2022/02/11 16:10:20;;;;;;;6.03;2.63;;;;;;;;;;5069303;28;20221;-69
